createdAt,value
2024-05-09T00:00:54.395Z,10.43
2024-05-09T00:06:02.646Z,10.37
2024-05-09T00:11:08.442Z,10.17
2024-05-09T00:16:13.955Z,10.11
2024-05-09T00:21:22.021Z,9.90
2024-05-09T00:26:27.966Z,9.89
2024-05-09T00:31:34.568Z,10.07
2024-05-09T00:36:42.592Z,10.05
2024-05-09T00:41:48.139Z,10.06
2024-05-09T00:46:56.303Z,10.09
2024-05-09T00:52:05.669Z,10.11
2024-05-09T00:57:11.111Z,9.98
2024-05-09T01:02:16.712Z,10.00
2024-05-09T01:07:24.893Z,10.00
2024-05-09T01:12:30.444Z,10.00
2024-05-09T01:17:36.700Z,9.95
2024-05-09T01:22:44.922Z,9.77
2024-05-09T01:27:53.000Z,9.81
2024-05-09T01:32:58.605Z,9.78
2024-05-09T01:38:04.381Z,9.80
2024-05-09T01:43:12.903Z,9.75
2024-05-09T01:48:18.565Z,9.70
2024-05-09T01:53:24.151Z,9.74
2024-05-09T01:58:33.230Z,9.69
2024-05-09T02:03:38.781Z,9.67
2024-05-09T02:08:44.424Z,9.64
2024-05-09T02:13:52.755Z,9.56
2024-05-09T02:18:58.412Z,9.49
2024-05-09T02:24:04.199Z,9.45
2024-05-09T02:29:12.268Z,9.45
2024-05-09T02:34:17.826Z,9.26
2024-05-09T02:39:23.407Z,9.20
2024-05-09T02:44:31.627Z,9.27
2024-05-09T02:49:37.398Z,9.19
2024-05-09T02:54:42.888Z,9.17
2024-05-09T02:59:54.408Z,9.06
2024-05-09T03:04:59.897Z,9.08
2024-05-09T03:10:11.813Z,8.99
2024-05-09T03:15:22.766Z,9.00
2024-05-09T03:20:33.544Z,8.98
2024-05-09T03:25:41.032Z,8.97
2024-05-09T03:30:49.088Z,8.86
2024-05-09T03:35:54.522Z,8.82
2024-05-09T03:41:00.796Z,8.76
2024-05-09T03:46:08.856Z,8.88
2024-05-09T03:51:14.439Z,8.86
2024-05-09T03:56:19.933Z,8.81
2024-05-09T04:01:30.110Z,8.79
2024-05-09T04:06:35.662Z,8.78
2024-05-09T04:11:41.241Z,8.70
2024-05-09T04:16:52.272Z,8.71
2024-05-09T04:21:57.745Z,8.60
2024-05-09T04:27:03.176Z,8.61
2024-05-09T04:32:11.858Z,8.48
2024-05-09T04:37:17.384Z,8.38
2024-05-09T04:42:22.838Z,8.56
2024-05-09T04:47:31.193Z,8.64
2024-05-09T04:52:36.732Z,8.72
2024-05-09T04:57:42.195Z,8.74
2024-05-09T05:02:50.305Z,8.86
2024-05-09T05:07:56.301Z,8.98
2024-05-09T05:13:23.854Z,9.22
2024-05-09T05:18:32.833Z,9.33
2024-05-09T05:23:38.494Z,9.15
2024-05-09T05:28:44.168Z,9.44
2024-05-09T05:33:52.680Z,9.54
2024-05-09T05:38:58.308Z,9.78
2024-05-09T05:44:03.909Z,10.17
2024-05-09T05:49:12.255Z,10.35
2024-05-09T05:54:17.932Z,10.52
2024-05-09T05:59:24.061Z,10.97
2024-05-09T06:04:32.385Z,11.42
2024-05-09T06:09:38.328Z,12.02
2024-05-09T06:14:44.330Z,12.50
2024-05-09T06:19:52.908Z,13.16
2024-05-09T06:24:58.613Z,14.67
2024-05-09T06:30:05.173Z,15.70
2024-05-09T06:35:13.466Z,16.65
2024-05-09T06:40:25.665Z,17.25
2024-05-09T06:45:39.994Z,17.88
2024-05-09T06:50:48.587Z,18.11
2024-05-09T06:55:54.300Z,18.63
2024-05-09T07:00:59.803Z,19.20
2024-05-09T07:06:08.312Z,19.50
2024-05-09T07:11:13.967Z,20.02
2024-05-09T07:16:19.526Z,19.71
2024-05-09T07:21:27.728Z,20.13
2024-05-09T07:26:33.221Z,20.57
2024-05-09T07:31:38.731Z,21.08
2024-05-09T07:36:46.914Z,21.33
2024-05-09T07:41:52.363Z,22.02
2024-05-09T07:57:17.396Z,21.85
2024-05-09T08:02:22.984Z,20.96
2024-05-09T08:07:31.510Z,21.38
2024-05-09T08:12:36.946Z,20.92
2024-05-09T08:17:42.508Z,20.85
2024-05-09T08:22:50.624Z,20.47
2024-05-09T08:27:56.023Z,20.52
2024-05-09T08:33:01.502Z,20.66
2024-05-09T08:38:11.011Z,21.01
2024-05-09T08:43:20.174Z,21.41
2024-05-09T08:48:26.987Z,20.76
2024-05-09T08:53:35.293Z,21.12
2024-05-09T08:58:42.392Z,21.29
2024-05-09T09:03:49.172Z,21.78
2024-05-09T09:08:58.987Z,21.82
2024-05-09T09:14:04.456Z,20.91
2024-05-09T09:19:10.075Z,21.28
2024-05-09T09:24:18.249Z,21.84
2024-05-09T09:29:24.227Z,21.05
2024-05-09T09:34:31.336Z,20.57
2024-05-09T09:39:48.956Z,20.69
2024-05-09T09:45:03.886Z,21.30
2024-05-09T09:50:16.674Z,21.28
2024-05-09T09:55:26.186Z,21.28
2024-05-09T10:00:33.429Z,20.66
2024-05-09T10:05:42.188Z,21.36
2024-05-09T10:10:52.700Z,21.45
2024-05-09T10:15:58.340Z,21.36
2024-05-09T10:21:04.284Z,20.90
2024-05-09T10:26:12.574Z,21.15
2024-05-09T10:31:19.384Z,21.03
2024-05-09T10:36:26.190Z,20.52
2024-05-09T10:41:34.248Z,20.14
2024-05-09T10:46:39.893Z,20.55
2024-05-09T10:51:47.202Z,20.60
2024-05-09T10:57:02.188Z,20.74
2024-05-09T11:02:09.517Z,20.10
2024-05-09T11:07:18.350Z,20.41
2024-05-09T11:12:26.663Z,20.95
2024-05-09T11:17:40.469Z,20.83
2024-05-09T11:22:46.086Z,21.17
2024-05-09T11:27:54.229Z,21.13
2024-05-09T11:32:59.974Z,21.26
2024-05-09T11:38:05.637Z,20.85
2024-05-09T11:43:13.894Z,20.57
2024-05-09T11:48:19.931Z,20.30
2024-05-09T11:53:25.605Z,20.31
2024-05-09T11:58:34.887Z,20.09
2024-05-09T12:03:40.600Z,20.04
2024-05-09T12:08:46.287Z,20.17
2024-05-09T12:13:54.378Z,20.03
2024-05-09T12:18:59.978Z,20.43
2024-05-09T12:24:05.500Z,20.69
2024-05-09T12:29:13.943Z,20.39
2024-05-09T12:34:19.802Z,20.59
2024-05-09T12:39:25.300Z,20.56
2024-05-09T12:44:33.411Z,19.68
2024-05-09T12:49:38.998Z,20.03
2024-05-09T12:54:44.658Z,19.82
2024-05-09T12:59:52.795Z,20.23
2024-05-09T13:04:58.397Z,20.34
2024-05-09T13:10:04.646Z,20.52
2024-05-09T13:15:13.961Z,20.44
2024-05-09T13:20:28.892Z,20.57
2024-05-09T13:25:38.599Z,20.27
2024-05-09T13:30:46.791Z,20.42
2024-05-09T13:35:52.303Z,20.20
2024-05-09T13:40:57.761Z,20.04
2024-05-09T13:46:05.969Z,20.16
2024-05-09T13:51:11.451Z,20.44
2024-05-09T13:56:16.935Z,20.83
2024-05-09T14:01:25.022Z,20.08
2024-05-09T14:06:30.995Z,19.92
2024-05-09T14:11:36.668Z,19.96
2024-05-09T14:16:45.917Z,20.17
2024-05-09T14:21:51.510Z,20.32
2024-05-09T14:26:57.000Z,20.02
2024-05-09T14:32:05.916Z,20.08
2024-05-09T14:37:11.859Z,20.22
2024-05-09T14:42:17.912Z,20.36
2024-05-09T14:47:26.216Z,20.16
2024-05-09T14:52:31.743Z,20.15
2024-05-09T14:57:37.906Z,19.92
2024-05-09T15:02:46.617Z,20.01
2024-05-09T15:07:53.459Z,20.00
2024-05-09T15:12:58.947Z,19.97
2024-05-09T15:18:07.671Z,20.01
2024-05-09T15:23:13.403Z,19.98
2024-05-09T15:28:19.126Z,20.15
2024-05-09T15:33:27.970Z,19.85
2024-05-09T15:38:33.707Z,20.08
2024-05-09T15:43:39.222Z,19.73
2024-05-09T15:48:47.525Z,19.91
2024-05-09T15:53:53.084Z,19.92
2024-05-09T15:58:58.734Z,19.83
2024-05-09T16:04:06.970Z,19.97
2024-05-09T16:09:12.723Z,19.74
2024-05-09T16:14:19.030Z,19.61
2024-05-09T16:19:27.052Z,19.58
2024-05-09T16:24:32.496Z,19.66
2024-05-09T16:29:38.406Z,19.72
2024-05-09T16:34:46.484Z,19.71
2024-05-09T16:39:52.070Z,19.74
2024-05-09T16:44:57.531Z,19.66
2024-05-09T16:50:08.375Z,19.66
2024-05-09T16:55:14.184Z,19.66
2024-05-09T17:00:30.937Z,19.53
2024-05-09T17:05:47.997Z,19.38
2024-05-09T17:10:54.091Z,19.30
2024-05-09T17:15:59.734Z,19.16
2024-05-09T17:21:08.488Z,19.04
2024-05-09T17:26:14.181Z,19.08
2024-05-09T17:31:19.911Z,19.13
2024-05-09T17:36:28.275Z,19.10
2024-05-09T17:41:33.707Z,18.94
2024-05-09T17:46:39.344Z,18.85
2024-05-09T17:51:56.949Z,18.76
2024-05-09T17:57:02.470Z,18.62
2024-05-09T18:02:08.361Z,18.50
2024-05-09T18:07:17.084Z,18.32
2024-05-09T18:12:22.661Z,18.14
2024-05-09T18:17:28.328Z,17.98
2024-05-09T18:22:36.470Z,17.73
2024-05-09T18:27:42.113Z,17.53
2024-05-09T18:32:48.295Z,17.33
2024-05-09T18:37:57.793Z,17.08
2024-05-09T18:43:04.214Z,16.83
2024-05-09T18:48:12.202Z,16.63
2024-05-09T18:53:20.539Z,16.39
2024-05-09T18:58:26.020Z,16.15
2024-05-09T19:03:31.739Z,15.91
2024-05-09T19:08:40.155Z,15.72
2024-05-09T19:13:45.825Z,15.54
2024-05-09T19:18:51.711Z,15.26
2024-05-09T19:24:00.222Z,15.07
2024-05-09T19:29:05.669Z,14.94
2024-05-09T19:34:11.157Z,14.79
2024-05-09T19:39:19.312Z,14.66
2024-05-09T19:44:25.007Z,14.45
2024-05-09T19:49:30.779Z,14.32
2024-05-09T19:54:39.128Z,14.18
2024-05-09T19:59:44.814Z,13.95
2024-05-09T20:04:50.656Z,13.90
2024-05-09T20:09:58.799Z,13.79
2024-05-09T20:15:04.804Z,13.69
2024-05-09T20:20:20.271Z,13.52
2024-05-09T20:25:36.325Z,13.36
2024-05-09T20:30:42.039Z,13.20
2024-05-09T20:35:47.647Z,13.16
2024-05-09T20:40:55.814Z,12.95
2024-05-09T20:46:01.308Z,12.87
2024-05-09T20:51:07.012Z,12.63
2024-05-09T20:56:15.118Z,12.61
2024-05-09T21:01:20.674Z,12.59
2024-05-09T21:06:26.190Z,12.50
2024-05-09T21:11:34.358Z,12.40
2024-05-09T21:16:40.087Z,12.35
2024-05-09T21:21:45.875Z,12.29
2024-05-09T21:26:56.617Z,12.24
2024-05-09T21:32:02.060Z,12.11
2024-05-09T21:37:07.984Z,11.99
2024-05-09T21:42:16.074Z,11.83
2024-05-09T21:47:21.652Z,11.46
2024-05-09T21:52:27.246Z,11.50
2024-05-09T21:57:35.366Z,11.53
2024-05-09T22:02:40.892Z,11.55
2024-05-09T22:07:46.365Z,11.53
2024-05-09T22:12:54.439Z,11.35
2024-05-09T22:18:00.281Z,11.09
2024-05-09T22:23:05.897Z,10.93
2024-05-09T22:28:16.697Z,11.01
2024-05-09T22:33:22.539Z,10.97
2024-05-09T22:38:28.048Z,10.91
2024-05-09T22:43:36.286Z,10.79
2024-05-09T22:48:41.867Z,10.78
2024-05-09T22:53:47.481Z,10.74
2024-05-09T22:58:55.511Z,10.69
2024-05-09T23:04:01.160Z,10.64
2024-05-09T23:09:08.309Z,10.56
2024-05-09T23:14:17.959Z,10.54
2024-05-09T23:19:23.531Z,10.26
2024-05-09T23:24:29.016Z,10.32
2024-05-09T23:29:37.171Z,10.36
2024-05-09T23:34:42.676Z,10.34
2024-05-09T23:39:48.220Z,10.30
2024-05-09T23:44:58.426Z,10.29
2024-05-09T23:50:06.802Z,10.16
2024-05-09T23:55:14.545Z,10.08
